Ridgecrest, North Carolina
Current Conditions -  °F | °C
As of 2:54 PM on Sunday 25 Jan 2015 (Local Time) from KAVL Reporting Station
Clear Clear  
Wind Chill: 53°   Ceiling: Unl
Heat Index: 53°   Visibility: 10mi
Dew Point: 27°   Wind: 15mph
Humidity: 37%   Direction: 200°SSW
Pressure: 29.72"   Gusts: 24mph
Location:  35.62°N, 82.28°W
Report Text: KAVL 251954Z 20013G21KT 10SM CLR 12/M03 A2972 RMK AO2 SLP063 T01171028
Loading
Personal Weather Stations






























Interactive Weather Map New forecast layout! Learn more

10-Day Weather Forecast

Advertisements
Track Severe Weather on mobile